Terminal Aerodrome Forecast
Issued by NWS La Crosse, WI

Home | Current Version | Previous Version | Text Only | Print | Product List | Glossary On
Versions: 1 2 3 4 5 6 7 8 9 10 11 12 13 14 15 16 17 18 19 20 21 22 23 24
000
FTUS43 KARX 281458 AAB
TAFLSE
TAF AMD
KLSE 281458Z 2815/2912 VRB04KT P6SM BKN012 OVC060
      TEMPO 2815/2816 5SM RA BR BKN018
     FM281600 19006KT P6SM BKN070
     FM282100 18008KT P6SM VCTS BKN060CB
     FM290300 18005KT P6SM BKN050=

USA.gov is the U.S. government's official web portal to all federal, state and local government web resources and services.